De Winton South Calgary Airport

METAR CYYC TAF CYYC
5 °C
°C
-
°C
48m
Idade
23:48:20
LT
22:48
UTC
0 ft

4.000

8.000

12.000

16.000

20.000

FEW 16.000
OVC 20.000
VFR
<?= Yii::t('app', 'Wind direction') ?> <?= Yii::t('app', 'of'); ?>
220°
17:30
Pôr-do-sol
53%
Humidade
Tesoura de Vento
Fechado/Neve
Alcance visual RWY
Condição RWY
Vert. visibilidade
Min. visibilidade
CAVOK
Tendência
Correcção
Relatório especial
29,64 inHg
QNH
METAR CYYC 032200Z 22004KT 160V240 30SM FEW160 OVC200 05/M04 A2964 RMK ACC2CI6 VIRGA / CONTRAILS SLP070
Nublado
4 kt
4 kt
15:00
VFR
6 kt
16:00
VFR
6 kt
17:00
VFR
12 kt
18:00
VFR
12 kt
19:00
VFR
12 kt
20:00
VFR
12 kt
21:00
VFR
12 kt
30 mi
Visibilidade
20.000 ft
Tecto
4 kt
Vento
metar-taf.com/CEH4

Metar-Taf.com

Decodificador visual

Nós e terceiros acompanhamos seu comportamento na internet em nosso site com cookies. Se você continuar, nós assumimos que você concorda com nosso política de cookies.